Diomede, Alaska
Current Conditions -  °F | °C
As of 9:58 PM on Sunday 23 Nov 2014 (Local Time) from PATE Reporting Station
Overcast Overcast  
Wind Chill:   Ceiling: 3800
Heat Index: 14°   Visibility: 10mi
Dew Point:   Wind: 9mph
Humidity: 67%   Direction: 320°NW
Pressure: 29.73"   Gusts: NA
Location:  65.1617°N, 164.975°W
Report Text: PATE 240658Z AUTO 32008KT 10SM OVC038 M10/M15 A2973 RMK AO2 SLP082 T11001150 FZRANO
Loading
Personal Weather Stations






























Interactive Weather Map New forecast layout! Learn more

10-Day Weather Forecast

Advertisements
Track Severe Weather on mobile